Beerburrum Forest Station, Queensland

8:28 AM AEST on January 29, 2015 (GMT +1000)
Glass House Mountains | Change Station
CLOSE
Current Station
Personal Weather Station
Location: Glass House Mountains, QUEENSLAND
Elevation: 72 ft
Nearby Weather Stations

Elev 72 ft 26.90 °S, 152.95 °E | Updated 2 minutes ago

Clear
Clear
77.4 °F
Feels Like 79 °F
N
8.0
Wind Variable Wind from SW
Gusts 14.0 mph

Today
High -- | Low -- °F
--% Chance of Precip.
Yesterday
High -- | Low -- °F
Precip. -- in
5:18 AM 6:43 PM
Waxing Gibbous, 68% visible
Pressure 29.77 in
Visibility -9999.0 miles
Clouds
Heat Index 79 °F
Dew Point 64 °F
Humidity 63%
Rainfall 0.00 in
Snow Depth Not available.
UV Not available.
Pollen Not available.
Air Quality Not available.
Flu Activity Not available.
METAR YBBN 282200Z 20008KT CAVOK 22/14 Q1008 RMK 6AC110

More Conditions Fewer Conditions

Pressure 29.77 in
Visibility -9999.0 miles
Clouds
Heat Index 79 °F
Dew Point 64 °F
Humidity 63%
Rainfall 0.00 in
Snow Depth Not available.
UV Not available.
Pollen Not available.
Air Quality Not available.
Flu Activity Not available.
METAR YBBN 282200Z 20008KT CAVOK 22/14 Q1008 RMK 6AC110

More Conditions Fewer Conditions

10-Day Weather Forecast

Almanac

Astronomy

Jan. 29, 2015 Rise Set
Actual Time
Civil Twilight
Nautical Twilight
Astronomical Twilight
Moon
Length of Visible Light
Length of Day
Tomorrow will be .
, % of the Moon is Illuminated

Today's Extremes

Country Highs Country Lows

Community

WunderPhotos

Upload Photos

1,791,282 photos uploaded!

WunderBlogs® & News

Nearby

Air Quality

  Air Quality AQ Index Pollutant
Not available.

Snow Depth

Station Depth Elevation

Earthquake Activity

City Distance Mag. Time & Date
Minimum magnitude displayed is 2.5.

Coastal Water Temperatures

Place Temperature

Nearby Weather Stations